Time;durP1;ratioP1;P1;durP2;ratioP2;P2;SDS_P1;SDS_P2;PMS_P1;PMS_P2;Temp;Humidity;BMP_temperature;BMP_pressure;BME280_temperature;BME280_humidity;BME280_pressure;Samples;Min_cycle;Max_cycle;Signal;HPM_P1;HPM_P2
2023/10/26 00:00:30;;;;;;;3.28;1.40;;;12.10;99.90;;;;;;5023190;28;20030;-91
2023/10/26 00:02:55;;;;;;;2.08;1.30;;;12.50;99.90;;;;;;5026255;28;20030;-89
2023/10/26 00:05:21;;;;;;;3.55;1.63;;;11.70;99.90;;;;;;5015932;28;20045;-90
2023/10/26 00:07:47;;;;;;;2.83;1.30;;;11.60;99.90;;;;;;5018834;28;20060;-89
2023/10/26 00:10:12;;;;;;;3.97;1.42;;;11.20;99.90;;;;;;5022592;28;20030;-89
2023/10/26 00:12:38;;;;;;;2.45;1.40;;;12.40;99.90;;;;;;5025535;28;20029;-88
2023/10/26 00:15:04;;;;;;;1.65;1.10;;;14.00;99.90;;;;;;5025762;28;20025;-88
2023/10/26 00:17:30;;;;;;;1.42;0.90;;;11.80;99.90;;;;;;5022912;28;20098;-87
2023/10/26 00:19:55;;;;;;;2.05;1.30;;;12.90;99.90;;;;;;5027984;28;20025;-87
2023/10/26 00:22:22;;;;;;;2.25;1.20;;;11.70;99.90;;;;;;5023969;28;20022;-89
2023/10/26 00:24:48;;;;;;;2.75;1.60;;;12.90;99.90;;;;;;5020425;28;20037;-90
2023/10/26 00:27:14;;;;;;;4.20;1.60;;;12.70;99.90;;;;;;5015296;28;20036;-89
2023/10/26 00:29:40;;;;;;;4.45;1.70;;;13.70;99.90;;;;;;5020781;28;20030;-89
2023/10/26 00:32:07;;;;;;;3.95;1.60;;;11.60;99.90;;;;;;5014974;28;20037;-89
2023/10/26 00:34:33;;;;;;;3.17;1.77;;;12.80;99.90;;;;;;5015554;28;20034;-89
2023/10/26 00:36:59;;;;;;;2.78;1.70;;;11.90;99.90;;;;;;5020492;28;20033;-89
2023/10/26 00:39:24;;;;;;;3.15;1.75;;;11.60;99.90;;;;;;5016505;28;20038;-88
2023/10/26 00:41:51;;;;;;;4.50;2.10;;;13.20;99.90;;;;;;5025370;28;20026;-87
2023/10/26 00:44:17;;;;;;;4.88;2.60;;;13.40;99.90;;;;;;5024561;28;20025;-85
2023/10/26 00:46:43;;;;;;;5.43;2.63;;;14.00;99.90;;;;;;5021286;28;20057;-88
2023/10/26 00:49:12;;;;;;;4.63;2.63;;;13.80;99.90;;;;;;5020582;28;20032;-87
2023/10/26 00:51:38;;;;;;;6.10;2.55;;;13.80;99.90;;;;;;5025358;28;20093;-88
2023/10/26 00:54:05;;;;;;;4.07;2.45;;;13.00;99.90;;;;;;5018843;28;20038;-86
2023/10/26 00:56:32;;;;;;;4.43;2.42;;;11.50;99.90;;;;;;5015822;28;20038;-89
2023/10/26 00:58:59;;;;;;;6.10;2.63;;;11.50;99.90;;;;;;5015458;28;20030;-88
2023/10/26 01:01:25;;;;;;;3.65;2.60;;;;;;;;;;5015819;28;20033;-87
2023/10/26 01:03:52;;;;;;;4.30;2.50;;;11.50;99.90;;;;;;5017445;28;20511;-89
2023/10/26 01:06:17;;;;;;;6.25;2.45;;;12.70;99.90;;;;;;5012786;28;20512;-87
2023/10/26 01:08:43;;;;;;;3.92;2.55;;;;;;;;;;5015300;28;20041;-89
2023/10/26 01:11:09;;;;;;;5.97;2.65;;;11.40;99.90;;;;;;5015817;28;20032;-88
2023/10/26 01:13:35;;;;;;;4.57;2.70;;;11.50;99.90;;;;;;5013652;28;20061;-89
2023/10/26 01:16:04;;;;;;;4.05;2.63;;;12.80;99.90;;;;;;5009768;28;20026;-88
2023/10/26 01:18:31;;;;;;;4.70;2.33;;;11.70;99.90;;;;;;5017913;28;20027;-87
2023/10/26 01:20:56;;;;;;;4.68;2.95;;;12.20;99.90;;;;;;5014304;28;20451;-88
2023/10/26 01:23:22;;;;;;;3.60;2.45;;;11.30;99.90;;;;;;5010831;28;20033;-88
2023/10/26 01:25:52;;;;;;;5.20;2.70;;;11.40;99.90;;;;;;5013623;28;20045;-88
2023/10/26 01:28:17;;;;;;;5.78;2.88;;;11.40;99.90;;;;;;5013357;28;20026;-90
2023/10/26 01:30:43;;;;;;;5.75;2.95;;;14.00;99.90;;;;;;5014354;28;21110;-90
2023/10/26 01:33:09;;;;;;;4.93;3.33;;;11.90;99.90;;;;;;5011624;28;20038;-88
2023/10/26 01:35:40;;;;;;;5.82;3.63;;;12.90;99.90;;;;;;5013442;28;20068;-85
2023/10/26 01:38:06;;;;;;;6.63;4.22;;;11.30;99.90;;;;;;5013351;28;20026;-88
2023/10/26 01:40:32;;;;;;;7.35;3.25;;;12.50;99.90;;;;;;5008411;28;20034;-89
2023/10/26 01:42:58;;;;;;;4.43;2.90;;;11.30;99.90;;;;;;5014266;28;20474;-86
2023/10/26 01:45:24;;;;;;;7.53;3.25;;;12.00;99.90;;;;;;5012761;28;20050;-87
2023/10/26 01:47:49;;;;;;;5.05;2.80;;;11.20;99.90;;;;;;5016795;28;20041;-89
2023/10/26 01:50:15;;;;;;;6.80;3.15;;;11.20;99.90;;;;;;5017811;28;20030;-88
2023/10/26 01:52:42;;;;;;;4.82;2.83;;;11.30;99.90;;;;;;5014237;28;20101;-90
2023/10/26 01:55:08;;;;;;;4.07;3.00;;;11.60;99.90;;;;;;5018084;28;20087;-89
2023/10/26 01:57:33;;;;;;;7.20;3.03;;;11.20;99.90;;;;;;5024417;28;20046;-88
2023/10/26 01:59:59;;;;;;;4.35;3.20;;;11.80;99.90;;;;;;5020582;28;20036;-89
2023/10/26 02:02:25;;;;;;;5.18;3.20;;;12.30;99.90;;;;;;5016921;28;20033;-88
2023/10/26 02:04:50;;;;;;;4.32;3.15;;;11.60;99.90;;;;;;5017509;28;20065;-88
2023/10/26 02:07:16;;;;;;;5.38;3.33;;;11.20;99.90;;;;;;5014614;28;20022;-89
2023/10/26 02:09:41;;;;;;;5.07;3.20;;;11.10;99.90;;;;;;5012909;28;20041;-89
2023/10/26 02:12:07;;;;;;;5.63;3.15;;;11.10;99.90;;;;;;5013176;28;20052;-88
2023/10/26 02:14:33;;;;;;;5.38;2.90;;;11.10;99.90;;;;;;5014126;28;20125;-88
2023/10/26 02:16:59;;;;;;;6.00;3.30;;;;;;;;;;5012015;28;20025;-90
2023/10/26 02:19:24;;;;;;;4.85;2.80;;;11.10;99.90;;;;;;5015560;28;20068;-89
2023/10/26 02:21:50;;;;;;;6.15;2.90;;;11.20;99.90;;;;;;5013070;28;20025;-87
2023/10/26 02:24:16;;;;;;;4.82;2.72;;;11.10;99.90;;;;;;5015319;28;20050;-88
2023/10/26 02:26:41;;;;;;;6.68;3.60;;;11.10;99.90;;;;;;5011303;28;20034;-90
2023/10/26 02:29:07;;;;;;;4.15;3.00;;;11.10;99.90;;;;;;5008747;28;20044;-89
2023/10/26 02:31:35;;;;;;;6.80;3.40;;;11.30;99.90;;;;;;5017640;28;20593;-89
2023/10/26 02:34:01;;;;;;;7.07;3.40;;;11.80;99.90;;;;;;5015656;28;20105;-91
2023/10/26 02:36:26;;;;;;;5.60;3.75;;;13.00;99.90;;;;;;5015316;28;20056;-87
2023/10/26 02:38:52;;;;;;;5.03;3.58;;;12.10;99.90;;;;;;5022160;28;20048;-90
2023/10/26 02:41:17;;;;;;;6.07;3.60;;;11.00;99.90;;;;;;5020982;28;20372;-91
2023/10/26 02:43:44;;;;;;;5.93;3.88;;;12.40;99.90;;;;;;5008541;28;20098;-88
2023/10/26 02:46:10;;;;;;;7.57;4.28;;;11.10;99.90;;;;;;5012338;28;20015;-87
2023/10/26 02:48:35;;;;;;;8.25;3.90;;;11.10;99.90;;;;;;5025215;28;20486;-87
2023/10/26 02:51:01;;;;;;;6.38;4.38;;;11.10;99.90;;;;;;5016840;28;20045;-86
2023/10/26 02:53:27;;;;;;;6.57;4.32;;;11.10;99.90;;;;;;5019852;28;20034;-89
2023/10/26 02:55:52;;;;;;;6.28;4.18;;;11.10;99.90;;;;;;5003048;28;20202;-89
2023/10/26 02:58:18;;;;;;;6.43;4.45;;;11.10;99.90;;;;;;5020911;28;20030;-87
2023/10/26 03:00:44;;;;;;;9.27;4.90;;;11.50;99.90;;;;;;5016832;28;20037;-90
2023/10/26 03:03:09;;;;;;;8.07;5.00;;;11.70;99.90;;;;;;5024089;28;20042;-90
2023/10/26 03:05:35;;;;;;;10.23;5.60;;;11.10;99.90;;;;;;5023188;28;20081;-88
2023/10/26 03:08:01;;;;;;;10.13;5.40;;;11.10;99.90;;;;;;5016282;28;20030;-89
2023/10/26 03:10:28;;;;;;;7.72;4.90;;;11.10;99.90;;;;;;5018948;28;20030;-86
2023/10/26 03:12:53;;;;;;;7.72;4.88;;;11.10;99.90;;;;;;5016423;28;20038;-87
2023/10/26 03:15:19;;;;;;;7.05;4.88;;;11.00;99.90;;;;;;5016567;28;20049;-88
2023/10/26 03:17:45;;;;;;;7.28;4.72;;;11.00;99.90;;;;;;5018643;28;20293;-90
2023/10/26 03:20:11;;;;;;;7.82;4.30;;;11.00;99.90;;;;;;5024288;28;20041;-89
2023/10/26 03:22:37;;;;;;;8.98;4.70;;;12.40;99.90;;;;;;5024299;28;20030;-84
2023/10/26 03:25:03;;;;;;;9.45;4.63;;;12.50;99.90;;;;;;5022033;28;20057;-88
2023/10/26 03:27:29;;;;;;;8.18;4.78;;;11.00;99.90;;;;;;5020300;28;20034;-86
2023/10/26 03:29:55;;;;;;;7.45;4.72;;;11.00;99.90;;;;;;5018676;28;20033;-86
2023/10/26 03:32:21;;;;;;;6.72;4.60;;;10.90;99.90;;;;;;5018113;28;20037;-88
2023/10/26 03:34:48;;;;;;;10.68;4.88;;;11.00;99.90;;;;;;5024083;28;20030;-88
2023/10/26 03:37:14;;;;;;;6.65;4.10;;;12.00;99.90;;;;;;5019170;28;20034;-89
2023/10/26 03:39:40;;;;;;;7.45;4.00;;;;;;;;;;5020384;28;20034;-89
2023/10/26 03:42:06;;;;;;;7.68;4.40;;;11.00;99.90;;;;;;5023699;28;20026;-87
2023/10/26 03:44:32;;;;;;;7.47;4.80;;;11.00;99.90;;;;;;5019599;28;20561;-89
2023/10/26 03:46:57;;;;;;;9.32;5.13;;;11.00;99.90;;;;;;5020482;28;20029;-88
2023/10/26 03:49:23;;;;;;;8.80;4.85;;;11.00;99.90;;;;;;5021718;28;20034;-89
2023/10/26 03:51:49;;;;;;;9.70;5.03;;;;;;;;;;5024024;28;20041;-88
2023/10/26 03:54:15;;;;;;;10.00;5.28;;;12.00;99.90;;;;;;5018316;28;20029;-88
2023/10/26 03:56:41;;;;;;;7.28;5.30;;;11.00;99.90;;;;;;5019014;28;20037;-89
2023/10/26 03:59:07;;;;;;;9.57;4.95;;;12.40;99.90;;;;;;5018493;28;20073;-88
2023/10/26 04:01:32;;;;;;;7.85;5.57;;;11.00;99.90;;;;;;5021426;28;20034;-88
2023/10/26 04:03:58;;;;;;;9.68;5.15;;;11.00;99.90;;;;;;5024932;28;20023;-88
2023/10/26 04:06:24;;;;;;;9.20;5.28;;;11.00;99.90;;;;;;5023916;28;20022;-88
2023/10/26 04:08:49;;;;;;;9.93;5.80;;;11.80;99.90;;;;;;5028293;28;20022;-87
2023/10/26 04:11:17;;;;;;;8.85;5.15;;;10.90;99.90;;;;;;5020151;28;20032;-89
2023/10/26 04:13:42;;;;;;;8.15;5.80;;;11.00;99.90;;;;;;5015732;28;20010;-88
2023/10/26 04:16:08;;;;;;;6.55;4.70;;;12.70;99.90;;;;;;5019576;28;20042;-89
2023/10/26 04:18:33;;;;;;;7.60;4.90;;;10.90;99.90;;;;;;5015030;28;20034;-88
2023/10/26 04:20:59;;;;;;;7.60;5.20;;;12.10;99.90;;;;;;5016985;28;20085;-87
2023/10/26 04:23:26;;;;;;;10.25;5.53;;;12.30;99.90;;;;;;5015553;28;20123;-88
2023/10/26 04:25:52;;;;;;;8.68;5.32;;;10.90;99.90;;;;;;5021545;28;20065;-90
2023/10/26 04:28:18;;;;;;;10.23;5.70;;;10.90;99.90;;;;;;5026339;28;20026;-88
2023/10/26 04:30:47;;;;;;;8.70;4.95;;;11.30;99.90;;;;;;5021744;28;20025;-89
2023/10/26 04:33:16;;;;;;;9.05;5.10;;;11.70;99.90;;;;;;5025857;28;20030;-88
2023/10/26 04:35:47;;;;;;;6.45;4.53;;;10.90;99.90;;;;;;5020919;28;20029;-87
2023/10/26 04:38:13;;;;;;;8.68;4.53;;;12.90;99.90;;;;;;5022464;28;20041;-88
2023/10/26 04:40:40;;;;;;;8.75;5.32;;;10.10;99.90;;;;;;5021485;28;20045;-91
2023/10/26 04:43:06;;;;;;;10.88;7.57;;;11.70;99.90;;;;;;5020754;28;20077;-82
2023/10/26 04:45:32;;;;;;;7.88;5.32;;;10.90;99.90;;;;;;5026763;28;20102;-89
2023/10/26 04:48:01;;;;;;;8.60;5.63;;;12.90;99.90;;;;;;5012410;28;20106;-88
2023/10/26 04:50:27;;;;;;;6.80;5.07;;;10.70;99.90;;;;;;5019652;28;20073;-87
2023/10/26 04:52:53;;;;;;;7.97;5.40;;;11.00;99.90;;;;;;5024764;28;20034;-89
2023/10/26 04:55:19;;;;;;;8.35;5.25;;;10.90;99.90;;;;;;5021541;28;20205;-89
2023/10/26 04:57:45;;;;;;;9.40;5.13;;;11.00;99.90;;;;;;5021453;28;20053;-89
2023/10/26 05:00:13;;;;;;;8.95;5.53;;;11.20;99.90;;;;;;5024835;28;20036;-88
2023/10/26 05:02:41;;;;;;;12.55;4.93;;;11.00;99.90;;;;;;5015079;28;20034;-89
2023/10/26 05:05:07;;;;;;;9.43;5.50;;;11.90;99.90;;;;;;5017736;28;20017;-86
2023/10/26 05:07:33;;;;;;;9.57;5.38;;;11.00;99.90;;;;;;5030102;28;20043;-90
2023/10/26 05:14:04;;;;;;;7.20;4.88;;;10.90;99.90;;;;;;5004811;28;20041;-87
2023/10/26 05:16:37;;;;;;;8.90;5.53;;;11.20;99.90;;;;;;5021005;28;20094;-87
2023/10/26 05:19:07;;;;;;;8.10;5.40;;;11.20;99.90;;;;;;5029545;28;20037;-88
2023/10/26 05:21:34;;;;;;;8.80;5.85;;;;;;;;;;5022037;28;20061;-89
2023/10/26 05:23:59;;;;;;;8.98;5.85;;;11.00;99.90;;;;;;5025842;28;20031;-89
2023/10/26 05:26:25;;;;;;;8.38;5.55;;;;;;;;;;5026863;28;20022;-89
2023/10/26 05:28:51;;;;;;;8.27;5.72;;;;;;;;;;5030749;28;20026;-89
2023/10/26 05:31:17;;;;;;;8.52;5.78;;;;;;;;;;5030868;28;20006;-88
2023/10/26 05:33:43;;;;;;;8.77;5.63;;;10.90;99.90;;;;;;5031960;28;20033;-88
2023/10/26 05:36:08;;;;;;;12.52;6.45;;;11.20;99.90;;;;;;5033438;28;20010;-86
2023/10/26 05:38:34;;;;;;;11.93;6.75;;;13.30;99.90;;;;;;5032683;28;20057;-89
2023/10/26 05:41:00;;;;;;;11.95;6.57;;;11.90;99.90;;;;;;5029515;28;20110;-89
2023/10/26 05:43:25;;;;;;;11.38;6.75;;;10.80;99.90;;;;;;5031850;28;20022;-89
2023/10/26 05:45:52;;;;;;;11.77;6.95;;;13.70;99.90;;;;;;5029456;28;20014;-89
2023/10/26 05:48:19;;;;;;;7.93;5.68;;;10.90;99.90;;;;;;5029380;28;20085;-89
2023/10/26 05:50:45;;;;;;;11.07;6.82;;;11.00;99.90;;;;;;5030719;28;20018;-88
2023/10/26 05:53:11;;;;;;;12.48;7.00;;;;;;;;;;5033035;28;20046;-88
2023/10/26 05:55:39;;;;;;;12.63;6.95;;;10.90;99.90;;;;;;5041733;23;20048;-89
2023/10/26 05:58:08;;;;;;;12.77;6.75;;;;;;;;;;5032367;28;20128;-89
2023/10/26 06:00:33;;;;;;;11.88;6.78;;;11.00;99.90;;;;;;5039489;28;20021;-90
2023/10/26 06:03:24;;;;;;;13.02;7.10;;;10.90;99.90;;;;;;5028082;28;20094;-92
2023/10/26 06:06:04;;;;;;;12.43;7.40;;;10.90;99.90;;;;;;5018212;28;20023;-90
2023/10/26 06:08:39;;;;;;;11.55;7.30;;;11.20;99.90;;;;;;5029035;28;20033;-88
2023/10/26 06:11:05;;;;;;;11.18;7.10;;;11.00;99.90;;;;;;5031072;28;20030;-89
2023/10/26 06:13:30;;;;;;;11.95;7.13;;;11.00;99.90;;;;;;5029425;28;20256;-88
2023/10/26 06:15:56;;;;;;;12.43;7.53;;;;;;;;;;5036617;28;20042;-88
2023/10/26 06:18:25;;;;;;;13.95;7.53;;;;;;;;;;5033995;28;20037;-89
2023/10/26 06:21:02;;;;;;;14.98;8.05;;;11.00;99.90;;;;;;5035299;28;20304;-89
2023/10/26 06:23:28;;;;;;;10.80;7.32;;;;;;;;;;5032620;28;20033;-90
2023/10/26 06:25:58;;;;;;;11.57;7.20;;;11.00;99.90;;;;;;5032236;28;20022;-89
2023/10/26 06:28:25;;;;;;;13.65;7.68;;;11.00;99.90;;;;;;5037458;28;20014;-89
2023/10/26 06:30:51;;;;;;;10.25;7.28;;;12.40;99.90;;;;;;5037536;28;20022;-88
2023/10/26 06:33:16;;;;;;;11.43;6.53;;;11.00;99.90;;;;;;5033796;28;20010;-88
2023/10/26 06:35:42;;;;;;;13.32;7.05;;;11.00;99.90;;;;;;5032314;28;20015;-90
2023/10/26 06:38:08;;;;;;;10.93;7.63;;;12.20;99.90;;;;;;5032546;28;20058;-88
2023/10/26 06:40:33;;;;;;;11.57;7.25;;;11.10;99.90;;;;;;5030089;28;20018;-88
2023/10/26 06:43:03;;;;;;;11.63;7.30;;;11.10;99.90;;;;;;5034606;28;20292;-89
2023/10/26 06:45:28;;;;;;;12.20;6.90;;;11.10;99.90;;;;;;5034297;28;20032;-88
2023/10/26 06:47:54;;;;;;;11.48;7.10;;;11.10;99.90;;;;;;5033606;28;20038;-87
2023/10/26 06:50:22;;;;;;;10.13;6.25;;;;;;;;;;5034282;28;20185;-89
2023/10/26 06:52:48;;;;;;;13.20;7.38;;;11.10;99.90;;;;;;5032866;28;20029;-88
2023/10/26 06:55:17;;;;;;;10.50;6.80;;;;;;;;;;5025900;28;20015;-89
2023/10/26 06:57:43;;;;;;;10.60;5.95;;;10.90;99.90;;;;;;5031409;28;20038;-90
2023/10/26 07:00:10;;;;;;;9.55;5.90;;;13.10;99.90;;;;;;5033811;28;20025;-86
2023/10/26 07:02:36;;;;;;;11.30;6.10;;;;;;;;;;5035573;28;20018;-88
2023/10/26 07:05:05;;;;;;;7.78;5.38;;;;;;;;;;5031254;28;20030;-87
2023/10/26 07:07:33;;;;;;;9.45;5.50;;;11.10;99.90;;;;;;5032160;28;20026;-88
2023/10/26 07:09:59;;;;;;;9.95;5.63;;;;;;;;;;5029863;28;20026;-86
2023/10/26 07:12:24;;;;;;;9.50;5.65;;;11.10;99.90;;;;;;5032167;28;20034;-89
2023/10/26 07:14:54;;;;;;;10.77;6.15;;;11.10;99.90;;;;;;5029971;28;20020;-88
2023/10/26 07:17:23;;;;;;;9.90;5.85;;;9.90;99.90;;;;;;5031306;28;20045;-88
2023/10/26 07:19:50;;;;;;;9.10;5.43;;;12.30;99.90;;;;;;5038577;28;20010;-87
2023/10/26 07:22:16;;;;;;;12.35;5.82;;;11.20;99.90;;;;;;5033172;28;20041;-86
2023/10/26 07:24:41;;;;;;;8.32;5.50;;;12.00;99.90;;;;;;5026781;28;20014;-86
2023/10/26 07:27:07;;;;;;;6.13;4.82;;;11.30;99.90;;;;;;5029599;28;20018;-86
2023/10/26 07:29:33;;;;;;;9.35;5.47;;;;;;;;;;5027589;28;20056;-88
2023/10/26 07:31:59;;;;;;;8.65;5.22;;;;;;;;;;5032382;28;20037;-88
2023/10/26 07:34:25;;;;;;;9.43;5.60;;;;;;;;;;5034737;28;20014;-89
2023/10/26 07:36:51;;;;;;;7.72;4.57;;;11.20;99.90;;;;;;5036471;28;20189;-89
2023/10/26 07:39:17;;;;;;;5.97;3.83;;;;;;;;;;5030642;28;20042;-88
2023/10/26 07:41:43;;;;;;;6.72;3.97;;;;;;;;;;5015695;28;20014;-90
2023/10/26 07:44:09;;;;;;;6.25;3.60;;;;;;;;;;5032251;28;20018;-89
2023/10/26 07:46:35;;;;;;;5.75;3.58;;;;;;;;;;5032444;28;20029;-88
2023/10/26 07:49:02;;;;;;;7.38;3.70;;;11.00;99.90;;;;;;5035259;28;20030;-87
2023/10/26 07:51:28;;;;;;;7.50;4.07;;;11.00;99.90;;;;;;5030724;28;20086;-86
2023/10/26 07:53:56;;;;;;;12.57;4.15;;;;;;;;;;5029804;28;20010;-87
2023/10/26 07:56:22;;;;;;;6.10;3.80;;;;;;;;;;5031592;28;20045;-86
2023/10/26 07:58:48;;;;;;;6.72;3.47;;;;;;;;;;5032609;28;20042;-86
2023/10/26 08:01:14;;;;;;;5.57;3.25;;;;;;;;;;5032005;28;20002;-87
2023/10/26 08:03:41;;;;;;;7.07;3.60;;;;;;;;;;5030232;28;20034;-89
2023/10/26 08:06:09;;;;;;;6.85;3.60;;;11.00;99.90;;;;;;5036720;28;20014;-87
2023/10/26 08:08:35;;;;;;;4.82;3.40;;;;;;;;;;5030284;28;20081;-89
2023/10/26 08:11:10;;;;;;;5.53;3.90;;;11.00;99.90;;;;;;5029550;28;20287;-88
2023/10/26 08:13:36;;;;;;;7.88;3.53;;;;;;;;;;5036371;28;20024;-88
2023/10/26 08:16:02;;;;;;;9.15;3.17;;;;;;;;;;5033680;28;20022;-88
2023/10/26 08:18:29;;;;;;;7.18;3.53;;;;;;;;;;5027659;28;20386;-87
2023/10/26 08:20:55;;;;;;;6.15;3.00;;;;;;;;;;5031877;28;20030;-87
2023/10/26 08:23:23;;;;;;;6.45;3.42;;;10.90;99.90;;;;;;5033978;28;20022;-88
2023/10/26 08:25:49;;;;;;;10.52;3.58;;;11.60;99.90;;;;;;5034964;28;20528;-86
2023/10/26 08:28:15;;;;;;;6.00;2.97;;;;;;;;;;5025642;28;20199;-87
2023/10/26 08:30:41;;;;;;;6.55;3.22;;;;;;;;;;5024026;28;20022;-86
2023/10/26 08:33:08;;;;;;;8.02;3.33;;;;;;;;;;5042160;28;20021;-87
2023/10/26 08:35:39;;;;;;;7.18;3.28;;;;;;;;;;5029442;28;20057;-88
2023/10/26 08:38:04;;;;;;;5.25;3.88;;;11.00;99.90;;;;;;5026899;28;20048;-87
2023/10/26 08:40:30;;;;;;;8.60;4.57;;;;;;;;;;5029095;28;20034;-84
2023/10/26 08:42:57;;;;;;;6.30;4.18;;;11.10;99.90;;;;;;5028833;28;20018;-86
2023/10/26 08:45:26;;;;;;;6.95;3.85;;;8.90;99.90;;;;;;5029804;28;20021;-88
2023/10/26 08:47:52;;;;;;;5.53;3.58;;;;;;;;;;5032558;28;20045;-87
2023/10/26 08:50:22;;;;;;;5.40;3.47;;;11.10;99.90;;;;;;5030386;28;20014;-85
2023/10/26 08:52:49;;;;;;;6.28;3.40;;;11.10;99.90;;;;;;5028505;28;20034;-88
2023/10/26 08:55:16;;;;;;;10.00;4.15;;;11.00;99.90;;;;;;5027132;28;20101;-86
2023/10/26 08:57:54;;;;;;;7.57;4.20;;;11.10;99.90;;;;;;5026996;28;20049;-87
2023/10/26 09:00:21;;;;;;;5.22;3.42;;;11.20;99.90;;;;;;5028584;28;20044;-85
2023/10/26 09:02:50;;;;;;;5.38;2.72;;;11.20;99.90;;;;;;5029375;28;20025;-88
2023/10/26 09:05:16;;;;;;;5.38;3.17;;;11.20;99.90;;;;;;5010655;28;20034;-84
2023/10/26 09:07:42;;;;;;;4.70;3.13;;;;;;;;;;5026944;28;20045;-88
2023/10/26 09:10:09;;;;;;;3.80;2.90;;;11.20;99.90;;;;;;5029177;28;20125;-88
2023/10/26 09:12:35;;;;;;;5.45;2.60;;;;;;;;;;5028429;28;20085;-87
2023/10/26 09:15:04;;;;;;;4.03;2.50;;;11.30;99.90;;;;;;5030346;28;20014;-88
2023/10/26 09:17:31;;;;;;;3.80;2.60;;;11.30;99.90;;;;;;5030443;28;20025;-87
2023/10/26 09:19:57;;;;;;;4.57;2.45;;;11.30;99.90;;;;;;5013911;28;20014;-88
2023/10/26 09:22:40;;;;;;;5.40;2.33;;;11.30;99.90;;;;;;5031140;28;20010;-89
2023/10/26 09:25:08;;;;;;;3.80;2.28;;;11.40;99.90;;;;;;5029717;28;20033;-90
2023/10/26 09:27:35;;;;;;;5.55;2.22;;;11.40;99.90;;;;;;5031730;28;20018;-89
2023/10/26 09:30:01;;;;;;;6.57;2.60;;;11.40;99.90;;;;;;5034760;28;20034;-86
2023/10/26 09:32:34;;;;;;;4.80;2.70;;;11.40;99.90;;;;;;5031893;28;20034;-89
2023/10/26 09:35:01;;;;;;;4.03;2.20;;;13.30;99.90;;;;;;5031736;28;20033;-89
2023/10/26 09:37:27;;;;;;;3.85;2.15;;;;;;;;;;5029231;28;21165;-88
2023/10/26 09:39:53;;;;;;;4.55;1.90;;;;;;;;;;5027189;28;20026;-87
2023/10/26 09:42:19;;;;;;;2.95;1.75;;;11.40;99.90;;;;;;5031984;28;20041;-89
2023/10/26 09:44:45;;;;;;;4.47;2.25;;;;;;;;;;5027174;28;20014;-89
2023/10/26 09:47:12;;;;;;;2.97;1.50;;;;;;;;;;5020250;28;20057;-83
2023/10/26 09:49:38;;;;;;;2.05;1.35;;;;;;;;;;5033347;28;20049;-88
2023/10/26 09:52:04;;;;;;;2.22;1.38;;;11.40;99.90;;;;;;5024506;28;20030;-84
2023/10/26 09:54:39;;;;;;;2.00;1.30;;;11.50;99.90;;;;;;5029186;28;20022;-86
2023/10/26 09:57:10;;;;;;;1.85;1.02;;;14.60;99.90;;;;;;5029878;28;20034;-86
2023/10/26 09:59:40;;;;;;;2.58;1.45;;;11.60;99.90;;;;;;5029785;28;20026;-83
2023/10/26 10:02:16;;;;;;;2.20;1.40;;;11.80;99.90;;;;;;5031389;28;20093;-88
2023/10/26 10:04:42;;;;;;;2.10;1.40;;;;;;;;;;5034512;28;20018;-89
2023/10/26 10:07:08;;;;;;;2.90;1.42;;;;;;;;;;5034936;28;20029;-86
2023/10/26 10:10:04;;;;;;;2.40;1.30;;;11.50;99.90;;;;;;5032936;28;20022;-88
2023/10/26 10:12:30;;;;;;;2.78;1.10;;;;;;;;;;5048633;28;20025;-83
2023/10/26 10:14:58;;;;;;;2.08;1.20;;;;;;;;;;5034196;28;20010;-87
2023/10/26 10:17:46;;;;;;;3.22;1.40;;;11.50;99.90;;;;;;5039633;28;20021;-88
2023/10/26 10:20:17;;;;;;;2.97;1.30;;;11.50;99.90;;;;;;5027592;28;20019;-87
2023/10/26 10:22:50;;;;;;;2.85;1.20;;;11.50;99.90;;;;;;5032977;28;20034;-86
2023/10/26 10:25:23;;;;;;;3.08;1.30;;;11.60;99.90;;;;;;5040521;28;20017;-84
2023/10/26 10:27:48;;;;;;;2.30;1.27;;;;;;;;;;5042318;28;20046;-86
2023/10/26 10:30:18;;;;;;;1.85;1.20;;;11.70;99.90;;;;;;5039456;28;20014;-87
2023/10/26 10:32:44;;;;;;;1.95;1.20;;;;;;;;;;5037321;28;20041;-86
2023/10/26 10:35:11;;;;;;;2.95;1.42;;;11.90;99.90;;;;;;5031038;28;20033;-87
2023/10/26 10:37:37;;;;;;;4.15;1.20;;;;;;;;;;5029413;28;20037;-87
2023/10/26 10:40:14;;;;;;;1.95;1.13;;;12.00;99.90;;;;;;5030443;28;20034;-87
2023/10/26 10:42:50;;;;;;;4.07;1.98;;;12.10;99.90;;;;;;5022960;28;20038;-86
2023/10/26 10:45:19;;;;;;;1.85;1.20;;;12.00;99.90;;;;;;5031400;28;20021;-86
2023/10/26 10:47:49;;;;;;;1.95;1.02;;;12.10;99.90;;;;;;5033566;28;20045;-87
2023/10/26 10:50:26;;;;;;;1.27;0.95;;;12.50;99.90;;;;;;5035230;28;20021;-89
2023/10/26 10:52:54;;;;;;;8.68;3.95;;;12.30;99.90;;;;;;5031879;28;20056;-85
2023/10/26 10:55:24;;;;;;;12.18;6.85;;;13.60;99.90;;;;;;5033169;28;20073;-87
2023/10/26 10:57:56;;;;;;;6.93;3.28;;;12.40;99.90;;;;;;5033212;28;20026;-87
2023/10/26 11:00:27;;;;;;;1.63;1.10;;;12.50;99.90;;;;;;5030252;28;20010;-87
2023/10/26 11:02:56;;;;;;;3.90;1.90;;;12.50;99.90;;;;;;5031935;28;20030;-88
2023/10/26 11:05:36;;;;;;;2.80;1.35;;;12.40;99.90;;;;;;5029936;28;20022;-87
2023/10/26 11:08:02;;;;;;;2.97;1.65;;;12.50;99.90;;;;;;5027122;28;20089;-86
2023/10/26 11:10:28;;;;;;;4.32;1.60;;;12.60;99.90;;;;;;5028880;28;20030;-86
2023/10/26 11:12:53;;;;;;;1.90;1.00;;;12.70;99.90;;;;;;5036001;28;20042;-89
2023/10/26 11:15:29;;;;;;;4.00;1.92;;;13.00;99.90;;;;;;5029265;28;20022;-86
2023/10/26 11:17:55;;;;;;;2.78;1.40;;;12.50;99.90;;;;;;5033139;28;20068;-87
2023/10/26 11:20:37;;;;;;;2.53;1.23;;;14.30;99.90;;;;;;5032049;28;20006;-87
2023/10/26 11:23:07;;;;;;;4.13;1.88;;;12.60;99.90;;;;;;5038136;28;20031;-86
2023/10/26 11:25:34;;;;;;;4.25;1.50;;;12.60;99.90;;;;;;5035338;28;20077;-87
2023/10/26 11:28:00;;;;;;;5.72;1.77;;;12.50;99.90;;;;;;5033211;28;20045;-86
2023/10/26 11:30:26;;;;;;;4.90;2.20;;;12.60;99.90;;;;;;5032875;28;20015;-89
2023/10/26 11:32:52;;;;;;;4.53;2.00;;;;;;;;;;5030523;28;20046;-87
2023/10/26 11:35:18;;;;;;;2.85;1.40;;;;;;;;;;5033489;28;20021;-86
2023/10/26 11:37:49;;;;;;;3.40;1.60;;;12.70;99.90;;;;;;5030864;28;20034;-88
2023/10/26 11:40:16;;;;;;;3.78;1.70;;;12.70;99.90;;;;;;5034773;28;20018;-87
2023/10/26 11:42:59;;;;;;;4.43;2.00;;;12.70;99.90;;;;;;5037669;28;20032;-89
2023/10/26 11:45:26;;;;;;;4.47;1.63;;;12.70;99.90;;;;;;5036585;28;20886;-85
2023/10/26 11:47:53;;;;;;;2.58;1.85;;;12.80;99.90;;;;;;5034132;28;20014;-85
2023/10/26 11:50:20;;;;;;;4.07;1.95;;;13.50;99.90;;;;;;5027369;28;20018;-88
2023/10/26 11:52:46;;;;;;;4.13;2.10;;;12.80;99.90;;;;;;5027093;28;20114;-89
2023/10/26 11:55:14;;;;;;;3.38;1.90;;;;;;;;;;5033270;28;20019;-87
2023/10/26 11:57:40;;;;;;;4.93;2.55;;;;;;;;;;5031030;28;20030;-88
2023/10/26 12:00:07;;;;;;;6.15;2.60;;;12.90;99.90;;;;;;5029486;28;20049;-89
2023/10/26 12:02:34;;;;;;;5.07;2.42;;;12.90;99.90;;;;;;5023654;28;20026;-86
2023/10/26 12:05:00;;;;;;;6.57;2.50;;;13.30;99.90;;;;;;5030885;28;20089;-86
2023/10/26 12:07:25;;;;;;;7.00;2.50;;;13.80;99.90;;;;;;5034607;28;20034;-91
2023/10/26 12:09:51;;;;;;;5.68;2.70;;;;;;;;;;5027254;28;20045;-85
2023/10/26 12:12:17;;;;;;;12.23;4.82;;;;;;;;;;5031062;28;20029;-88
2023/10/26 12:14:43;;;;;;;9.77;2.38;;;;;;;;;;5035466;28;20018;-87
2023/10/26 12:17:10;;;;;;;10.85;2.38;;;;;;;;;;5029089;28;20041;-88
2023/10/26 12:19:36;;;;;;;10.15;2.58;;;;;;;;;;5029647;28;20031;-86
2023/10/26 12:22:02;;;;;;;12.73;3.25;;;;;;;;;;5026262;28;20026;-87
2023/10/26 12:24:29;;;;;;;9.88;2.17;;;;;;;;;;5031636;28;20034;-88
2023/10/26 12:26:57;;;;;;;7.30;2.05;;;14.00;99.90;;;;;;5033332;28;20017;-89
2023/10/26 12:29:23;;;;;;;7.55;1.73;;;13.90;99.90;;;;;;5032440;28;20113;-88
2023/10/26 12:31:49;;;;;;;8.68;1.90;;;14.00;99.90;;;;;;5026786;28;20112;-88
2023/10/26 12:34:15;;;;;;;7.18;1.63;;;;;;;;;;5032620;28;20034;-87
2023/10/26 12:36:41;;;;;;;6.60;1.70;;;14.10;99.90;;;;;;5031989;28;20010;-89
2023/10/26 12:39:06;;;;;;;9.57;2.15;;;14.10;99.90;;;;;;5028414;28;20038;-87
2023/10/26 12:41:32;;;;;;;9.85;2.10;;;14.60;99.90;;;;;;5033644;28;20014;-87
2023/10/26 12:43:57;;;;;;;6.38;1.95;;;15.00;99.90;;;;;;5015713;28;20022;-90
2023/10/26 12:46:23;;;;;;;7.30;1.80;;;15.10;99.90;;;;;;5026567;28;21413;-88
2023/10/26 12:48:49;;;;;;;5.68;1.80;;;;;;;;;;5031084;28;20007;-87
2023/10/26 12:51:15;;;;;;;8.73;2.03;;;;;;;;;;5030813;28;20034;-89
2023/10/26 12:53:41;;;;;;;5.40;1.70;;;14.20;99.90;;;;;;5028727;28;20491;-89
2023/10/26 12:56:09;;;;;;;4.18;1.60;;;14.20;99.90;;;;;;5028958;28;20037;-87
2023/10/26 12:58:35;;;;;;;5.75;1.58;;;14.40;99.90;;;;;;5023625;28;20029;-86
2023/10/26 13:01:01;;;;;;;6.25;2.05;;;14.50;99.90;;;;;;5027375;28;20090;-89
2023/10/26 13:03:27;;;;;;;7.32;3.65;;;16.30;99.90;;;;;;5030151;28;20632;-87
2023/10/26 13:05:53;;;;;;;6.93;1.83;;;15.40;99.90;;;;;;5030608;28;20021;-90
2023/10/26 13:08:18;;;;;;;10.88;4.97;;;14.50;99.90;;;;;;5030031;28;20069;-89
2023/10/26 13:10:44;;;;;;;7.47;1.73;;;14.50;99.90;;;;;;5032905;28;20021;-88